createdAt,value
2022-10-16T00:01:13.993Z,100798.03
2022-10-16T00:03:42.424Z,100804.09
2022-10-16T00:06:10.004Z,100798.25
2022-10-16T00:08:37.327Z,100805.56
2022-10-16T00:11:09.770Z,100798.66
2022-10-16T00:13:38.355Z,100796.78
2022-10-16T00:16:05.480Z,100799.28
2022-10-16T00:18:32.259Z,100813.03
2022-10-16T00:21:10.770Z,100815.13
2022-10-16T00:23:37.934Z,100815.13
2022-10-16T00:26:14.052Z,100826.97
2022-10-16T00:28:41.127Z,100824.84
2022-10-16T00:31:10.177Z,100826.56
2022-10-16T00:33:38.104Z,100815.72
2022-10-16T00:36:06.039Z,100819.91
2022-10-16T00:38:32.699Z,100824.28
2022-10-16T00:40:59.266Z,100822.59
2022-10-16T00:43:54.134Z,100830.53
2022-10-16T00:46:25.670Z,100833.63
2022-10-16T00:49:01.619Z,100835.75
2022-10-16T00:51:39.767Z,100845.09
2022-10-16T00:54:12.756Z,100848.00
2022-10-16T00:56:39.429Z,100848.84
2022-10-16T00:59:12.681Z,100837.56
2022-10-16T01:01:39.230Z,100839.06
2022-10-16T01:04:05.808Z,100839.41
2022-10-16T01:06:50.259Z,100833.16
2022-10-16T01:09:22.521Z,100833.56
2022-10-16T01:11:55.105Z,100839.00
2022-10-16T01:14:40.963Z,100836.34
2022-10-16T01:17:33.753Z,100835.69
2022-10-16T01:20:19.186Z,100841.09
2022-10-16T01:23:05.264Z,100836.50
2022-10-16T01:25:50.192Z,100836.50
2022-10-16T01:28:20.051Z,100849.41
2022-10-16T01:30:48.453Z,100846.72
2022-10-16T01:33:23.861Z,100855.47
2022-10-16T01:35:59.199Z,100859.22
2022-10-16T01:38:32.743Z,100857.16
2022-10-16T01:41:05.663Z,100857.34
2022-10-16T01:43:41.725Z,100851.28
2022-10-16T01:46:11.319Z,100858.38
2022-10-16T01:48:38.965Z,100851.50
2022-10-16T01:51:10.833Z,100849.41
2022-10-16T01:53:38.415Z,100853.34
2022-10-16T01:56:08.586Z,100863.56
2022-10-16T01:58:38.979Z,100861.03
2022-10-16T02:01:08.667Z,100870.66
2022-10-16T02:03:38.270Z,100867.53
2022-10-16T02:06:04.887Z,100872.50
2022-10-16T02:08:32.147Z,100874.38
2022-10-16T02:11:00.913Z,100874.38
2022-10-16T02:13:36.828Z,100883.34
2022-10-16T02:16:03.727Z,100882.50
2022-10-16T02:18:31.779Z,100888.97
2022-10-16T02:21:30.129Z,100893.53
2022-10-16T02:24:33.679Z,100888.97
2022-10-16T02:27:27.812Z,100890.19
2022-10-16T02:30:00.462Z,100891.22
2022-10-16T02:32:32.855Z,100884.78
2022-10-16T02:35:01.142Z,100879.38
2022-10-16T02:37:28.683Z,100885.41
2022-10-16T02:39:58.061Z,100888.53
2022-10-16T02:42:31.061Z,100890.00
2022-10-16T02:44:57.634Z,100889.59
2022-10-16T02:47:24.204Z,100887.09
2022-10-16T02:49:50.822Z,100884.38
2022-10-16T02:52:17.423Z,100892.09
2022-10-16T02:54:43.987Z,100894.81
2022-10-16T02:57:10.606Z,100897.91
2022-10-16T02:59:37.152Z,100888.38
2022-10-16T03:02:03.946Z,100896.88
2022-10-16T03:04:30.528Z,100901.25
2022-10-16T03:06:57.128Z,100905.66
2022-10-16T03:09:23.693Z,100914.41
2022-10-16T03:11:50.419Z,100907.13
2022-10-16T03:14:17.038Z,100924.22
2022-10-16T03:16:43.685Z,100916.28
2022-10-16T03:19:10.255Z,100918.78
2022-10-16T03:21:36.877Z,100929.81
2022-10-16T03:24:03.736Z,100925.25
2022-10-16T03:26:30.337Z,100922.53
2022-10-16T03:28:56.924Z,100923.38
2022-10-16T03:31:23.505Z,100930.47
2022-10-16T03:33:50.061Z,100926.28
2022-10-16T03:36:16.868Z,100923.56
2022-10-16T03:38:43.449Z,100927.75
2022-10-16T03:41:10.024Z,100941.28
2022-10-16T03:43:36.892Z,100937.94
2022-10-16T03:46:03.497Z,100940.84
2022-10-16T03:48:30.570Z,100947.31
2022-10-16T03:50:57.168Z,100947.94
2022-10-16T03:53:23.728Z,100947.94
2022-10-16T03:55:50.304Z,100954.84
2022-10-16T03:58:17.555Z,100950.00
2022-10-16T04:00:45.427Z,100967.94
2022-10-16T04:03:12.327Z,100970.63
2022-10-16T04:05:39.911Z,100958.78
2022-10-16T04:08:07.188Z,100961.47
2022-10-16T04:10:33.742Z,100967.94
2022-10-16T04:13:00.303Z,100972.31
2022-10-16T04:15:26.978Z,100964.19
2022-10-16T04:17:53.819Z,100969.41
2022-10-16T04:20:20.638Z,100968.38
2022-10-16T04:22:47.207Z,100959.41
2022-10-16T04:25:13.768Z,100959.59
2022-10-16T04:27:42.332Z,100961.75
2022-10-16T04:30:12.006Z,100977.34
2022-10-16T04:32:38.570Z,100976.06
2022-10-16T04:35:05.497Z,100969.59
2022-10-16T04:37:32.080Z,100970.44
2022-10-16T04:39:58.657Z,100974.63
2022-10-16T04:42:25.366Z,100981.75
2022-10-16T04:44:51.909Z,100978.56
2022-10-16T04:47:18.487Z,100977.72
2022-10-16T04:49:45.125Z,100969.59
2022-10-16T04:52:11.738Z,100969.16
2022-10-16T04:54:38.271Z,100974.38
2022-10-16T04:57:05.924Z,100977.09
2022-10-16T04:59:32.710Z,100968.53
2022-10-16T05:01:59.303Z,100974.13
2022-10-16T05:04:25.870Z,100985.59
2022-10-16T05:06:52.423Z,100990.19
2022-10-16T05:09:18.976Z,100996.63
2022-10-16T05:11:45.532Z,100989.34
2022-10-16T05:14:12.119Z,100987.47
2022-10-16T05:16:38.818Z,100977.88
2022-10-16T05:19:26.284Z,100973.47
2022-10-16T05:21:52.270Z,100980.38
2022-10-16T05:24:18.838Z,100979.53
2022-10-16T05:26:45.420Z,100982.63
2022-10-16T05:29:11.990Z,100978.22
2022-10-16T05:31:38.693Z,100990.75
2022-10-16T05:34:05.294Z,101001.38
2022-10-16T05:36:31.857Z,101009.50
2022-10-16T05:38:58.413Z,101009.13
2022-10-16T05:41:27.107Z,101018.09
2022-10-16T05:43:54.301Z,101026.59
2022-10-16T05:46:21.085Z,101020.41
2022-10-16T05:48:47.696Z,101023.56
2022-10-16T05:51:15.773Z,101024.59
2022-10-16T05:56:14.289Z,101025.22
2022-10-16T05:58:45.530Z,101030.50
2022-10-16T06:01:19.802Z,101038.25
2022-10-16T06:03:46.509Z,101030.81
2022-10-16T06:06:15.873Z,101024.19
2022-10-16T06:08:44.052Z,101018.97
2022-10-16T06:11:16.365Z,101029.66
2022-10-16T06:13:43.657Z,101032.03
2022-10-16T06:16:11.692Z,101039.94
2022-10-16T06:18:38.439Z,101039.94
2022-10-16T06:21:27.973Z,101039.34
2022-10-16T06:23:56.082Z,101042.00
2022-10-16T06:26:25.677Z,101042.00
2022-10-16T06:28:52.714Z,101041.91
2022-10-16T06:31:19.422Z,101046.06
2022-10-16T06:33:47.991Z,101047.94
2022-10-16T06:36:16.931Z,101039.84
2022-10-16T06:38:44.443Z,101051.31
2022-10-16T06:41:14.020Z,101048.91
2022-10-16T06:43:40.659Z,101058.31
2022-10-16T06:46:10.262Z,101057.22
2022-10-16T06:48:37.401Z,101048.25
2022-10-16T06:51:09.372Z,101044.50
2022-10-16T06:53:39.723Z,101048.91
2022-10-16T06:56:11.594Z,101051.59
2022-10-16T06:58:38.979Z,101064.13
2022-10-16T07:01:06.485Z,101067.84
2022-10-16T07:03:33.447Z,101070.38
2022-10-16T07:06:07.034Z,101082.25
2022-10-16T07:08:42.141Z,101095.34
2022-10-16T07:11:11.823Z,101100.38
2022-10-16T07:13:41.138Z,101109.97
2022-10-16T07:16:10.499Z,101099.16
2022-10-16T07:18:37.759Z,101101.09
2022-10-16T07:21:17.183Z,101096.69
2022-10-16T07:23:44.492Z,101097.06
2022-10-16T07:26:11.963Z,101099.03
2022-10-16T07:28:40.331Z,101106.53
2022-10-16T07:31:11.796Z,101125.66
2022-10-16T07:33:39.630Z,101120.22
2022-10-16T07:36:06.966Z,101120.06
2022-10-16T07:38:33.748Z,101125.09
2022-10-16T07:41:05.550Z,101125.66
2022-10-16T07:43:32.797Z,101127.91
2022-10-16T07:46:01.371Z,101123.72
2022-10-16T07:48:33.040Z,101123.34
2022-10-16T07:51:01.282Z,101131.66
2022-10-16T07:53:28.582Z,101135.00
2022-10-16T07:56:02.967Z,101135.22
2022-10-16T07:58:30.059Z,101136.84
2022-10-16T08:00:57.699Z,101140.28
2022-10-16T08:03:25.290Z,101122.78
2022-10-16T08:05:52.530Z,101116.22
2022-10-16T08:08:20.023Z,101113.59
2022-10-16T08:10:46.585Z,101113.28
2022-10-16T08:13:16.228Z,101119.91
2022-10-16T08:15:44.219Z,101136.47
2022-10-16T08:18:12.446Z,101151.41
2022-10-16T08:20:39.686Z,101144.78
2022-10-16T08:23:06.785Z,101149.19
2022-10-16T08:25:35.603Z,101147.41
2022-10-16T08:28:05.513Z,101150.72
2022-10-16T08:30:33.058Z,101146.13
2022-10-16T08:32:59.970Z,101141.34
2022-10-16T08:35:26.614Z,101151.75
2022-10-16T08:37:53.161Z,101152.94
2022-10-16T08:43:24.681Z,101173.97
2022-10-16T08:46:03.308Z,101174.72
2022-10-16T08:48:49.159Z,101172.44
2022-10-16T08:51:25.836Z,101163.28
2022-10-16T08:53:55.177Z,101169.00
2022-10-16T08:56:22.132Z,101167.38
2022-10-16T08:58:49.235Z,101158.84
2022-10-16T09:01:17.972Z,101157.38
2022-10-16T09:03:44.577Z,101169.09
2022-10-16T09:06:29.554Z,101175.31
2022-10-16T09:08:58.944Z,101182.22
2022-10-16T09:11:46.308Z,101178.78
2022-10-16T09:14:27.758Z,101192.16
2022-10-16T09:17:02.278Z,101181.44
2022-10-16T09:19:38.986Z,101182.84
2022-10-16T09:22:17.013Z,101184.31
2022-10-16T09:24:43.894Z,101185.06
2022-10-16T09:27:15.728Z,101181.72
2022-10-16T09:29:42.389Z,101179.97
2022-10-16T09:32:18.441Z,101199.78
2022-10-16T09:34:50.854Z,101200.53
2022-10-16T09:37:23.660Z,101198.75
2022-10-16T09:39:55.029Z,101208.00
2022-10-16T09:42:25.620Z,101204.13
2022-10-16T09:44:54.542Z,101208.63
2022-10-16T09:47:25.299Z,101214.00
2022-10-16T09:49:58.830Z,101219.63
2022-10-16T09:52:25.764Z,101214.50
2022-10-16T09:54:57.970Z,101211.78
2022-10-16T09:57:25.641Z,101220.72
2022-10-16T09:59:57.133Z,101210.09
2022-10-16T10:02:35.265Z,101216.22
2022-10-16T10:05:02.778Z,101225.03
2022-10-16T10:07:36.005Z,101226.09
2022-10-16T10:10:06.399Z,101216.00
2022-10-16T10:12:35.849Z,101218.34
2022-10-16T10:15:08.649Z,101223.75
2022-10-16T10:17:45.744Z,101213.34
2022-10-16T10:20:36.133Z,101221.94
2022-10-16T10:23:22.971Z,101227.44
2022-10-16T10:25:54.988Z,101226.31
2022-10-16T10:28:39.758Z,101222.00
2022-10-16T10:31:24.252Z,101224.31
2022-10-16T10:34:03.450Z,101227.84
2022-10-16T10:36:37.654Z,101234.75
2022-10-16T10:39:18.469Z,101232.91
2022-10-16T10:42:09.984Z,101230.50
2022-10-16T10:44:58.197Z,101249.22
2022-10-16T10:47:43.541Z,101238.34
2022-10-16T10:50:27.797Z,101238.00
2022-10-16T10:53:14.522Z,101244.34
2022-10-16T10:55:47.104Z,101241.06
2022-10-16T10:58:42.504Z,101246.31
2022-10-16T11:01:15.058Z,101255.22
2022-10-16T11:03:58.551Z,101259.34
2022-10-16T11:06:31.546Z,101262.06
2022-10-16T11:09:10.174Z,101262.44
2022-10-16T11:11:50.773Z,101261.03
2022-10-16T11:14:25.032Z,101258.41
2022-10-16T11:17:12.231Z,101254.28
2022-10-16T11:19:53.616Z,101259.88
2022-10-16T11:22:33.120Z,101265.78
2022-10-16T11:25:20.990Z,101260.06
2022-10-16T11:27:57.869Z,101263.44
2022-10-16T11:30:33.596Z,101272.13
2022-10-16T11:33:09.267Z,101270.00
2022-10-16T11:35:45.362Z,101272.59
2022-10-16T11:38:20.362Z,101274.47
2022-10-16T11:40:51.449Z,101287.50
2022-10-16T11:43:21.776Z,101275.16
2022-10-16T11:45:55.218Z,101280.88
2022-10-16T11:48:31.434Z,101272.97
2022-10-16T11:51:18.297Z,101270.94
2022-10-16T11:53:52.184Z,101277.34
2022-10-16T11:56:21.040Z,101271.63
2022-10-16T11:58:56.534Z,101274.66
2022-10-16T12:01:53.008Z,101276.03
2022-10-16T12:04:25.313Z,101273.13
2022-10-16T12:07:25.321Z,101273.84
2022-10-16T12:09:51.881Z,101276.31
2022-10-16T12:12:31.439Z,101282.69
2022-10-16T12:15:25.808Z,101276.75
2022-10-16T12:17:49.439Z,101278.38
2022-10-16T12:20:15.976Z,101286.28
2022-10-16T12:22:55.432Z,101291.50
2022-10-16T12:25:29.879Z,101286.94
2022-10-16T12:28:21.253Z,101293.34
2022-10-16T12:30:59.174Z,101312.97
2022-10-16T12:33:31.946Z,101300.69
2022-10-16T12:36:03.212Z,101298.19
2022-10-16T12:38:39.644Z,101299.69
2022-10-16T12:41:09.499Z,101301.50
2022-10-16T12:43:38.261Z,101298.69
2022-10-16T12:46:10.910Z,101289.41
2022-10-16T12:48:48.911Z,101295.72
2022-10-16T12:51:26.451Z,101296.28
2022-10-16T12:54:18.070Z,101295.66
2022-10-16T12:57:08.608Z,101290.22
2022-10-16T12:59:53.925Z,101294.16
2022-10-16T13:02:42.530Z,101301.16
2022-10-16T13:05:30.907Z,101298.19
2022-10-16T13:08:03.598Z,101298.72
2022-10-16T13:10:36.882Z,101297.97
2022-10-16T13:13:21.694Z,101297.13
2022-10-16T13:16:00.238Z,101300.59
2022-10-16T13:18:55.464Z,101306.94
2022-10-16T13:21:52.029Z,101308.28
2022-10-16T13:24:55.418Z,101299.66
2022-10-16T13:27:34.063Z,101309.31
2022-10-16T13:30:30.740Z,101325.25
2022-10-16T13:33:07.683Z,101323.16
2022-10-16T13:35:36.300Z,101333.25
2022-10-16T13:38:18.475Z,101336.03
2022-10-16T13:41:05.790Z,101339.34
2022-10-16T13:43:42.411Z,101343.47
2022-10-16T13:46:20.453Z,101333.97
2022-10-16T13:49:13.671Z,101335.84
2022-10-16T13:51:40.256Z,101353.72
2022-10-16T13:54:10.287Z,101344.25
2022-10-16T13:56:36.878Z,101348.44
2022-10-16T13:59:23.271Z,101351.56
2022-10-16T14:01:53.001Z,101353.81
2022-10-16T14:04:19.755Z,101355.94
2022-10-16T14:06:49.836Z,101352.53
2022-10-16T14:09:21.975Z,101355.75
2022-10-16T14:11:58.951Z,101363.72
2022-10-16T14:14:27.707Z,101370.47
2022-10-16T14:16:54.287Z,101364.53
2022-10-16T14:19:29.426Z,101372.13
2022-10-16T14:21:57.093Z,101368.56
2022-10-16T14:24:32.141Z,101371.06
2022-10-16T14:26:59.477Z,101372.34
2022-10-16T14:29:28.425Z,101376.97
2022-10-16T14:32:02.914Z,101373.19
2022-10-16T14:34:33.845Z,101366.88
2022-10-16T14:37:29.237Z,101370.91
2022-10-16T14:39:57.861Z,101377.66
2022-10-16T14:42:26.547Z,101377.69
2022-10-16T14:44:55.757Z,101379.16
2022-10-16T14:47:26.766Z,101390.25
2022-10-16T14:50:00.000Z,101383.75
2022-10-16T14:52:26.653Z,101386.88
2022-10-16T14:54:57.431Z,101379.13
2022-10-16T14:57:28.320Z,101381.28
2022-10-16T14:59:55.225Z,101381.69
2022-10-16T15:02:26.297Z,101385.03
2022-10-16T15:04:52.865Z,101392.78
2022-10-16T15:07:19.702Z,101385.19
2022-10-16T15:09:49.096Z,101394.97
2022-10-16T15:12:17.177Z,101393.06
2022-10-16T15:14:44.002Z,101392.34
2022-10-16T15:17:12.366Z,101400.47
2022-10-16T15:19:39.474Z,101399.88
2022-10-16T15:22:06.049Z,101401.63
2022-10-16T15:24:32.631Z,101406.09
2022-10-16T15:26:59.241Z,101405.63
2022-10-16T15:29:25.805Z,101414.19
2022-10-16T15:31:52.483Z,101414.78
2022-10-16T15:34:20.527Z,101416.50
2022-10-16T15:36:47.165Z,101407.00
2022-10-16T15:39:19.576Z,101410.66
2022-10-16T15:41:52.336Z,101413.47
2022-10-16T15:44:19.195Z,101419.53
2022-10-16T15:46:45.858Z,101414.50
2022-10-16T15:49:12.976Z,101424.53
2022-10-16T15:51:41.303Z,101426.72
2022-10-16T15:54:08.421Z,101423.44
2022-10-16T15:56:35.096Z,101426.28
2022-10-16T15:59:02.915Z,101444.38
2022-10-16T16:01:30.510Z,101441.97
2022-10-16T16:03:57.200Z,101448.44
2022-10-16T16:06:26.869Z,101453.22
2022-10-16T16:08:54.507Z,101455.00
2022-10-16T16:11:21.832Z,101463.09
2022-10-16T16:13:48.471Z,101466.34
2022-10-16T16:16:16.975Z,101466.34
2022-10-16T16:18:44.165Z,101472.81
2022-10-16T16:21:14.302Z,101476.72
2022-10-16T16:23:40.899Z,101477.00
2022-10-16T16:26:16.796Z,101487.81
2022-10-16T16:28:44.270Z,101488.63
2022-10-16T16:31:11.297Z,101488.16
2022-10-16T16:33:37.891Z,101499.59
2022-10-16T16:36:11.546Z,101495.91
2022-10-16T16:38:41.221Z,101503.78
2022-10-16T16:41:19.350Z,101508.00
2022-10-16T16:43:46.209Z,101513.22
2022-10-16T16:46:12.973Z,101526.34
2022-10-16T16:48:39.767Z,101530.91
2022-10-16T16:51:08.288Z,101530.34
2022-10-16T16:53:36.057Z,101537.44
2022-10-16T16:56:06.967Z,101533.91
2022-10-16T16:58:34.111Z,101534.94
2022-10-16T17:01:19.377Z,101537.38
2022-10-16T17:03:47.477Z,101545.84
2022-10-16T17:06:20.520Z,101552.69
2022-10-16T17:08:47.939Z,101554.34
2022-10-16T17:11:16.895Z,101561.38
2022-10-16T17:13:43.557Z,101563.72
2022-10-16T17:16:10.402Z,101578.38
2022-10-16T17:18:37.156Z,101577.72
2022-10-16T17:21:07.258Z,101578.56
2022-10-16T17:23:34.754Z,101582.13
2022-10-16T17:26:10.972Z,101584.66
2022-10-16T17:28:37.729Z,101594.13
2022-10-16T17:31:13.555Z,101599.19
2022-10-16T17:33:40.835Z,101601.69
2022-10-16T17:36:08.288Z,101610.88
2022-10-16T17:38:35.642Z,101609.19
2022-10-16T17:41:18.381Z,101622.19
2022-10-16T17:43:45.672Z,101622.19
2022-10-16T17:46:13.738Z,101624.31
2022-10-16T17:48:41.901Z,101635.66
2022-10-16T17:51:11.259Z,101634.25
2022-10-16T17:53:38.524Z,101635.56
2022-10-16T17:56:07.901Z,101638.00
2022-10-16T17:58:34.756Z,101646.97
2022-10-16T18:01:01.951Z,101647.34
2022-10-16T18:03:28.949Z,101642.75
2022-10-16T18:05:55.916Z,101642.75
2022-10-16T18:08:26.340Z,101644.63
2022-10-16T18:10:55.405Z,101650.59
2022-10-16T18:13:22.108Z,101649.56
2022-10-16T18:16:00.749Z,101646.69
2022-10-16T18:18:29.635Z,101646.69
2022-10-16T18:21:01.134Z,101647.34
2022-10-16T18:23:28.917Z,101647.53
2022-10-16T18:25:56.316Z,101652.44
2022-10-16T18:28:23.177Z,101653.66
2022-10-16T18:31:01.452Z,101651.13
2022-10-16T18:33:30.852Z,101653.28
2022-10-16T18:36:01.583Z,101656.00
2022-10-16T18:38:29.092Z,101664.84
2022-10-16T18:40:55.657Z,101659.56
2022-10-16T18:43:22.249Z,101669.75
2022-10-16T18:45:56.884Z,101676.75
2022-10-16T18:48:23.762Z,101670.97
2022-10-16T18:50:50.318Z,101681.16
2022-10-16T18:53:16.964Z,101686.56
2022-10-16T18:55:43.570Z,101676.38
2022-10-16T18:58:10.224Z,101691.63
2022-10-16T19:00:36.802Z,101692.28
2022-10-16T19:03:03.387Z,101694.81
2022-10-16T19:05:29.961Z,101707.34
2022-10-16T19:07:56.526Z,101716.69
2022-10-16T19:10:23.102Z,101719.91
2022-10-16T19:12:49.666Z,101719.41
2022-10-16T19:15:16.429Z,101730.06
2022-10-16T19:17:43.046Z,101725.19
2022-10-16T19:20:09.950Z,101713.50
2022-10-16T19:22:53.943Z,101709.28
2022-10-16T19:25:23.656Z,101707.25
2022-10-16T19:27:51.558Z,101699.81
2022-10-16T19:30:19.491Z,101690.66
2022-10-16T19:32:46.445Z,101689.66
2022-10-16T19:35:12.994Z,101691.88
2022-10-16T19:37:39.802Z,101703.72
2022-10-16T19:40:07.023Z,101713.91
2022-10-16T19:42:33.685Z,101710.38
2022-10-16T19:45:00.245Z,101714.41
2022-10-16T19:47:27.026Z,101715.41
2022-10-16T19:49:54.380Z,101705.97
2022-10-16T19:52:22.306Z,101706.63
2022-10-16T19:54:49.001Z,101701.72
2022-10-16T19:57:15.659Z,101700.72
2022-10-16T19:59:44.924Z,101705.13
2022-10-16T20:02:12.468Z,101717.00
2022-10-16T20:04:39.092Z,101718.00
2022-10-16T20:07:05.900Z,101727.16
2022-10-16T20:09:33.400Z,101731.41
2022-10-16T20:12:00.042Z,101735.09
2022-10-16T20:14:26.934Z,101734.09
2022-10-16T20:16:53.508Z,101727.16
2022-10-16T20:19:20.217Z,101737.16
2022-10-16T20:21:46.783Z,101748.00
2022-10-16T20:24:13.425Z,101762.22
2022-10-16T20:26:40.057Z,101754.25
2022-10-16T20:29:07.679Z,101751.38
2022-10-16T20:31:34.819Z,101762.72
2022-10-16T20:34:11.282Z,101762.53
2022-10-16T20:36:42.569Z,101769.00
2022-10-16T20:39:09.447Z,101777.13
2022-10-16T20:41:36.669Z,101772.53
2022-10-16T20:44:03.851Z,101778.16
2022-10-16T20:46:30.548Z,101771.38
2022-10-16T20:49:06.111Z,101782.22
2022-10-16T20:51:44.029Z,101795.91
2022-10-16T20:54:11.322Z,101795.91
2022-10-16T20:56:37.945Z,101805.94
2022-10-16T20:59:05.174Z,101806.47
2022-10-16T21:01:32.028Z,101814.41
2022-10-16T21:04:01.841Z,101815.44
2022-10-16T21:06:30.925Z,101813.75
2022-10-16T21:08:59.748Z,101810.03
2022-10-16T21:11:27.624Z,101793.75
2022-10-16T21:13:57.313Z,101811.03
2022-10-16T21:16:24.977Z,101807.66
2022-10-16T21:18:53.121Z,101807.66
2022-10-16T21:21:25.255Z,101810.03
2022-10-16T21:23:52.797Z,101807.97
2022-10-16T21:26:26.056Z,101809.00
2022-10-16T21:28:56.072Z,101801.03
2022-10-16T21:31:22.951Z,101799.19
2022-10-16T21:33:50.381Z,101806.66
2022-10-16T21:36:32.875Z,101807.66
2022-10-16T21:39:05.092Z,101802.91
2022-10-16T21:41:32.172Z,101804.97
2022-10-16T21:43:59.232Z,101804.97
2022-10-16T21:46:28.820Z,101792.44
2022-10-16T21:48:57.285Z,101793.28
2022-10-16T21:51:28.753Z,101794.47
2022-10-16T21:53:55.701Z,101817.66
2022-10-16T21:56:23.334Z,101820.38
2022-10-16T21:58:49.916Z,101832.72
2022-10-16T22:01:19.031Z,101836.78
2022-10-16T22:03:46.280Z,101842.19
2022-10-16T22:06:14.883Z,101841.88
2022-10-16T22:08:42.223Z,101837.28
2022-10-16T22:11:14.548Z,101834.91
2022-10-16T22:13:42.120Z,101834.91
2022-10-16T22:16:09.401Z,101829.31
2022-10-16T22:18:37.699Z,101828.28
2022-10-16T22:21:06.470Z,101826.41
2022-10-16T22:23:33.052Z,101831.84
2022-10-16T22:26:01.393Z,101816.41
2022-10-16T22:28:28.237Z,101804.53
2022-10-16T22:30:54.960Z,101799.13
2022-10-16T22:33:21.548Z,101815.38
2022-10-16T22:35:48.159Z,101819.97
2022-10-16T22:38:14.720Z,101830.66
2022-10-16T22:40:41.573Z,101837.94
2022-10-16T22:43:08.172Z,101840.66
2022-10-16T22:45:35.765Z,101836.94
2022-10-16T22:48:03.983Z,101842.50
2022-10-16T22:50:30.845Z,101838.09
2022-10-16T22:52:57.409Z,101845.06
2022-10-16T22:55:24.060Z,101847.09
2022-10-16T22:57:50.899Z,101840.50
2022-10-16T23:00:19.687Z,101829.63
2022-10-16T23:02:46.403Z,101816.59
2022-10-16T23:05:13.119Z,101822.53
2022-10-16T23:07:39.691Z,101830.81
2022-10-16T23:10:07.594Z,101830.47
2022-10-16T23:12:35.708Z,101841.50
2022-10-16T23:15:02.442Z,101846.09
2022-10-16T23:17:28.996Z,101838.81
2022-10-16T23:19:55.774Z,101850.63
2022-10-16T23:22:22.393Z,101843.38
2022-10-16T23:24:48.957Z,101850.63
2022-10-16T23:27:15.534Z,101850.31
2022-10-16T23:29:42.078Z,101851.34
2022-10-16T23:32:08.644Z,101844.03
2022-10-16T23:34:35.220Z,101839.66
2022-10-16T23:37:03.748Z,101843.03
2022-10-16T23:39:30.352Z,101843.84
2022-10-16T23:41:56.962Z,101842.50
2022-10-16T23:44:23.592Z,101835.06
2022-10-16T23:46:50.154Z,101838.44
2022-10-16T23:49:16.752Z,101856.75
2022-10-16T23:51:43.298Z,101855.06
2022-10-16T23:54:10.048Z,101842.19
2022-10-16T23:56:36.641Z,101845.06
2022-10-16T23:59:03.743Z,101846.25
